Time;durP1;ratioP1;P1;durP2;ratioP2;P2;SDS_P1;SDS_P2;PMS_P1;PMS_P2;Temp;Humidity;BMP_temperature;BMP_pressure;BME280_temperature;BME280_humidity;BME280_pressure;Samples;Min_cycle;Max_cycle;Signal;HPM_P1;HPM_P2
2022/03/11 00:01:48;;;;;;;16.35;11.52;;;;;;;;;;5089799;28;20048;-67
2022/03/11 00:04:14;;;;;;;21.67;10.73;;;;;;;;;;5091377;28;20119;-67
2022/03/11 00:06:40;;;;;;;17.30;10.95;;;;;;;;;;5091656;28;20046;-67
2022/03/11 00:09:06;;;;;;;15.80;10.20;;;;;;;;;;5091183;28;20032;-67
2022/03/11 00:11:32;;;;;;;15.77;10.57;;;;;;;;;;5091716;28;20044;-67
2022/03/11 00:13:58;;;;;;;15.75;10.95;;;;;;;;;;5091725;28;20443;-67
2022/03/11 00:16:24;;;;;;;18.08;10.52;;;;;;;;;;5090891;28;20051;-67
2022/03/11 00:18:50;;;;;;;19.90;10.90;;;;;;;;;;5091526;28;20040;-67
2022/03/11 00:21:16;;;;;;;20.27;10.80;;;;;;;;;;5091582;28;20047;-67
2022/03/11 00:23:42;;;;;;;22.60;10.88;;;;;;;;;;5091043;28;20048;-67
2022/03/11 00:26:09;;;;;;;18.27;10.93;;;;;;;;;;5093992;28;20039;-67
2022/03/11 00:28:36;;;;;;;18.80;10.30;;;;;;;;;;5095371;28;20047;-67
2022/03/11 00:31:03;;;;;;;16.77;10.68;;;;;;;;;;5094610;28;20088;-67
2022/03/11 00:33:29;;;;;;;16.35;10.63;;;;;;;;;;5089010;28;20044;-67
2022/03/11 00:35:56;;;;;;;16.08;9.70;;;;;;;;;;5075317;28;20036;-67
2022/03/11 00:38:22;;;;;;;19.13;9.77;;;;;;;;;;5074631;28;20049;-67
2022/03/11 00:40:48;;;;;;;22.10;9.85;;;;;;;;;;5075033;28;20446;-67
2022/03/11 00:43:14;;;;;;;15.80;9.88;;;;;;;;;;5075159;28;20075;-67
2022/03/11 00:45:40;;;;;;;17.95;9.43;;;;;;;;;;5074361;28;20467;-67
2022/03/11 00:48:06;;;;;;;15.15;10.07;;;;;;;;;;5074789;28;20040;-67
2022/03/11 00:50:32;;;;;;;14.82;9.75;;;;;;;;;;5074580;28;20068;-67
2022/03/11 00:52:58;;;;;;;14.18;9.43;;;;;;;;;;5074157;28;20155;-67
2022/03/11 00:55:24;;;;;;;14.77;9.13;;;;;;;;;;5074771;28;20465;-67
2022/03/11 00:57:50;;;;;;;15.45;9.10;;;;;;;;;;5074765;28;20045;-67
2022/03/11 01:00:16;;;;;;;17.67;9.48;;;;;;;;;;5074010;28;20521;-67
2022/03/11 01:02:42;;;;;;;16.30;8.50;;;;;;;;;;5074950;28;20048;-67
2022/03/11 01:05:09;;;;;;;13.85;8.80;;;;;;;;;;5074839;28;20483;-67
2022/03/11 01:07:35;;;;;;;15.85;8.90;;;;;;;;;;5074115;28;20131;-67
2022/03/11 01:10:01;;;;;;;15.27;9.07;;;;;;;;;;5074776;28;20036;-67
2022/03/11 01:12:27;;;;;;;17.80;9.20;;;;;;;;;;5074524;28;20685;-67
2022/03/11 01:14:53;;;;;;;18.05;9.73;;;;;;;;;;5073960;28;20037;-67
2022/03/11 01:17:19;;;;;;;17.55;9.27;;;;;;;;;;5073921;28;20190;-67
2022/03/11 01:19:45;;;;;;;14.30;8.43;;;;;;;;;;5074419;28;20056;-67
2022/03/11 01:22:11;;;;;;;15.57;8.80;;;;;;;;;;5073827;28;20193;-67
2022/03/11 01:24:37;;;;;;;13.75;8.23;;;;;;;;;;5074476;28;20036;-67
2022/03/11 01:27:04;;;;;;;13.38;7.43;;;;;;;;;;5073795;28;20043;-67
2022/03/11 01:29:30;;;;;;;13.93;8.25;;;;;;;;;;5073258;28;20032;-66
2022/03/11 01:31:56;;;;;;;14.45;8.00;;;;;;;;;;5074073;28;20060;-67
2022/03/11 01:34:22;;;;;;;12.02;8.10;;;;;;;;;;5087501;28;20044;-67
2022/03/11 01:36:48;;;;;;;14.45;8.93;;;;;;;;;;5093373;28;20047;-67
2022/03/11 01:39:14;;;;;;;15.15;8.10;;;;;;;;;;5093994;28;20177;-67
2022/03/11 01:41:40;;;;;;;16.23;8.45;;;;;;;;;;5093902;28;20051;-67
2022/03/11 01:44:07;;;;;;;14.85;9.13;;;;;;;;;;5093613;28;20044;-67
2022/03/11 01:46:33;;;;;;;14.07;8.77;;;;;;;;;;5094045;28;20090;-67
2022/03/11 01:49:00;;;;;;;12.68;8.10;;;;;;;;;;5094234;28;20427;-67
2022/03/11 01:51:30;;;;;;;15.20;8.77;;;;;;;;;;5093409;28;20040;-67
2022/03/11 01:53:57;;;;;;;15.05;9.25;;;;;;;;;;5093961;28;20040;-67
2022/03/11 01:56:26;;;;;;;15.52;8.45;;;;;;;;;;5093900;28;20032;-67
2022/03/11 01:58:53;;;;;;;13.90;8.60;;;;;;;;;;5093277;28;20093;-67
2022/03/11 02:01:19;;;;;;;13.68;8.30;;;;;;;;;;5093747;28;20665;-67
2022/03/11 02:03:46;;;;;;;14.57;8.15;;;;;;;;;;5093698;28;20079;-67
2022/03/11 02:06:13;;;;;;;13.43;8.18;;;;;;;;;;5093229;28;20131;-67
2022/03/11 02:08:39;;;;;;;14.43;8.55;;;;;;;;;;5093441;28;20038;-67
2022/03/11 02:11:06;;;;;;;15.07;8.25;;;;;;;;;;5093968;28;20122;-67
2022/03/11 02:13:50;;;;;;;16.35;9.15;;;;;;;;;;5093165;28;20044;-67
2022/03/11 02:16:17;;;;;;;14.52;7.82;;;;;;;;;;5093070;28;20489;-67
2022/03/11 02:18:44;;;;;;;13.68;8.68;;;;;;;;;;5093630;28;20051;-67
2022/03/11 02:21:11;;;;;;;14.65;9.00;;;;;;;;;;5092847;28;20043;-67
2022/03/11 02:23:43;;;;;;;14.30;8.52;;;;;;;;;;5093702;28;20111;-67
2022/03/11 02:26:09;;;;;;;15.60;8.60;;;;;;;;;;5093462;28;20040;-67
2022/03/11 02:28:35;;;;;;;13.38;8.95;;;;;;;;;;5092658;28;20051;-67
2022/03/11 02:31:01;;;;;;;14.38;8.82;;;;;;;;;;5092948;28;20407;-67
2022/03/11 02:33:28;;;;;;;17.00;9.15;;;;;;;;;;5087102;28;20157;-67
2022/03/11 02:35:54;;;;;;;15.77;8.95;;;;;;;;;;5072268;28;20036;-67
2022/03/11 02:38:20;;;;;;;15.57;8.85;;;;;;;;;;5072608;28;20044;-67
2022/03/11 02:40:46;;;;;;;17.55;9.02;;;;;;;;;;5072812;28;20051;-67
2022/03/11 02:43:12;;;;;;;16.90;9.40;;;;;;;;;;5072106;28;20534;-67
2022/03/11 02:45:38;;;;;;;17.10;10.00;;;;;;;;;;5072763;28;20083;-67
2022/03/11 02:48:05;;;;;;;17.17;8.95;;;;;;;;;;5071997;28;20044;-67
2022/03/11 02:50:31;;;;;;;14.68;9.15;;;;;;;;;;5071684;28;20067;-67
2022/03/11 02:52:57;;;;;;;16.92;9.27;;;;;;;;;;5072523;28;20037;-67
2022/03/11 02:55:24;;;;;;;15.45;9.38;;;;;;;;;;5072640;28;20044;-67
2022/03/11 02:57:50;;;;;;;18.75;9.07;;;;;;;;;;5071706;28;20479;-67
2022/03/11 03:00:16;;;;;;;14.70;9.23;;;;;;;;;;5072334;28;20492;-67
2022/03/11 03:02:42;;;;;;;16.77;9.50;;;;;;;;;;5070674;28;20062;-67
2022/03/11 03:05:08;;;;;;;16.85;9.63;;;;;;;;;;5071803;28;20098;-67
2022/03/11 03:07:34;;;;;;;18.55;9.95;;;;;;;;;;5071905;28;20055;-67
2022/03/11 03:10:01;;;;;;;18.52;10.48;;;;;;;;;;5072322;28;20053;-67
2022/03/11 03:12:27;;;;;;;17.25;9.90;;;;;;;;;;5071715;28;20124;-67
2022/03/11 03:14:53;;;;;;;22.38;11.25;;;;;;;;;;5072042;28;20064;-67
2022/03/11 03:17:21;;;;;;;16.70;10.45;;;;;;;;;;5072047;28;20043;-67
2022/03/11 03:19:47;;;;;;;27.85;10.63;;;;;;;;;;5071472;28;20415;-67
2022/03/11 03:22:13;;;;;;;18.58;10.10;;;;;;;;;;5072009;28;20437;-67
2022/03/11 03:24:39;;;;;;;19.35;10.20;;;;;;;;;;5071943;28;20040;-67
2022/03/11 03:27:05;;;;;;;18.40;11.15;;;;;;;;;;5070865;28;20119;-67
2022/03/11 03:29:31;;;;;;;22.60;11.35;;;;;;;;;;5071754;28;20152;-67
2022/03/11 03:31:58;;;;;;;18.10;10.10;;;;;;;;;;5071922;28;20040;-67
2022/03/11 03:34:31;;;;;;;20.65;10.93;;;;;;;;;;5084857;28;20043;-67
2022/03/11 03:36:58;;;;;;;18.33;10.82;;;;;;;;;;5092152;28;20066;-67
2022/03/11 03:39:24;;;;;;;19.58;11.13;;;;;;;;;;5092114;28;20032;-67
2022/03/11 03:41:50;;;;;;;21.02;11.63;;;;;;;;;;5091324;28;20091;-67
2022/03/11 03:44:16;;;;;;;17.88;11.05;;;;;;;;;;5091761;28;20051;-67
2022/03/11 03:46:42;;;;;;;22.00;11.57;;;;;;;;;;5091785;28;20143;-67
2022/03/11 03:49:08;;;;;;;18.17;10.85;;;;;;;;;;5091290;28;20039;-67
2022/03/11 03:51:35;;;;;;;19.40;11.10;;;;;;;;;;5091646;28;20042;-67
2022/03/11 03:54:01;;;;;;;23.17;11.50;;;;;;;;;;5091897;28;20047;-67
2022/03/11 03:56:27;;;;;;;21.50;11.20;;;;;;;;;;5090904;28;20115;-67
2022/03/11 03:58:53;;;;;;;19.98;12.07;;;;;;;;;;5091824;28;20483;-67
2022/03/11 04:01:19;;;;;;;22.30;11.30;;;;;;;;;;5090835;28;20044;-67
2022/03/11 04:03:45;;;;;;;21.70;12.02;;;;;;;;;;5091100;28;20054;-67
2022/03/11 04:06:11;;;;;;;22.33;12.40;;;;;;;;;;5091663;28;20032;-67
2022/03/11 04:08:37;;;;;;;24.65;11.90;;;;;;;;;;5091728;28;20040;-67
2022/03/11 04:11:03;;;;;;;26.48;12.30;;;;;;;;;;5091314;28;20089;-67
2022/03/11 04:13:29;;;;;;;23.30;12.32;;;;;;;;;;5091683;28;20924;-67
2022/03/11 04:15:55;;;;;;;22.65;12.05;;;;;;;;;;5091420;28;20048;-67
2022/03/11 04:18:21;;;;;;;24.48;12.68;;;;;;;;;;5091516;28;20052;-67
2022/03/11 04:20:48;;;;;;;26.63;12.63;;;;;;;;;;5091189;28;20383;-67
2022/03/11 04:23:13;;;;;;;24.25;11.88;;;;;;;;;;5090084;28;20067;-67
2022/03/11 04:25:40;;;;;;;20.27;11.40;;;;;;;;;;5091375;28;20044;-67
2022/03/11 04:28:06;;;;;;;23.67;12.10;;;;;;;;;;5090372;28;20044;-67
2022/03/11 04:30:32;;;;;;;25.30;13.40;;;;;;;;;;5091099;28;20051;-67
2022/03/11 04:32:58;;;;;;;26.98;12.95;;;;;;;;;;5089344;28;20044;-67
2022/03/11 04:35:24;;;;;;;21.05;12.88;;;;;;;;;;5070333;28;20120;-67
2022/03/11 04:37:50;;;;;;;21.70;12.82;;;;;;;;;;5071337;28;20043;-67
2022/03/11 04:40:16;;;;;;;24.55;13.57;;;;;;;;;;5070804;28;20467;-67
2022/03/11 04:42:42;;;;;;;22.45;13.15;;;;;;;;;;5070449;28;20044;-67
2022/03/11 04:45:08;;;;;;;24.85;13.23;;;;;;;;;;5071024;28;20045;-67
2022/03/11 04:47:34;;;;;;;23.63;13.30;;;;;;;;;;5071119;28;20048;-67
2022/03/11 04:50:00;;;;;;;27.98;14.93;;;;;;;;;;5070476;28;20383;-67
2022/03/11 04:52:26;;;;;;;28.40;15.18;;;;;;;;;;5070973;28;20162;-67
2022/03/11 04:54:52;;;;;;;25.08;14.05;;;;;;;;;;5070957;28;20116;-67
2022/03/11 04:57:19;;;;;;;22.58;12.98;;;;;;;;;;5070034;28;20135;-67
2022/03/11 04:59:45;;;;;;;28.48;14.15;;;;;;;;;;5070762;28;20043;-67
2022/03/11 05:02:11;;;;;;;29.48;15.23;;;;;;;;;;5070908;28;20099;-67
2022/03/11 05:04:37;;;;;;;24.02;14.15;;;;;;;;;;5069750;28;20068;-67
2022/03/11 05:07:06;;;;;;;27.90;14.85;;;;;;;;;;5070826;28;20059;-67
2022/03/11 05:09:32;;;;;;;25.77;14.32;;;;;;;;;;5070755;28;20052;-67
2022/03/11 05:11:58;;;;;;;31.95;15.05;;;;;;;;;;5071756;28;20045;-67
2022/03/11 05:14:24;;;;;;;27.98;14.45;;;;;;;;;;5074204;28;20037;-67
2022/03/11 05:16:50;;;;;;;24.20;13.45;;;;;;;;;;5074393;28;20124;-67
2022/03/11 05:19:16;;;;;;;26.98;14.65;;;;;;;;;;5073950;28;20047;-67
2022/03/11 05:21:42;;;;;;;28.02;14.80;;;;;;;;;;5074416;28;20044;-67
2022/03/11 05:24:08;;;;;;;26.30;14.82;;;;;;;;;;5074517;28;20431;-67
2022/03/11 05:26:34;;;;;;;25.42;14.70;;;;;;;;;;5073426;28;20041;-67
2022/03/11 05:29:00;;;;;;;33.38;15.50;;;;;;;;;;5072725;28;20402;-67
2022/03/11 05:31:27;;;;;;;29.55;14.88;;;;;;;;;;5073710;28;20079;-67
2022/03/11 05:33:54;;;;;;;31.55;15.20;;;;;;;;;;5083029;28;20035;-67
2022/03/11 05:36:21;;;;;;;29.45;16.00;;;;;;;;;;5094246;28;20048;-67
2022/03/11 05:38:47;;;;;;;24.23;14.20;;;;;;;;;;5094177;28;20040;-67
2022/03/11 05:41:13;;;;;;;28.42;15.40;;;;;;;;;;5093123;28;20063;-67
2022/03/11 05:43:39;;;;;;;28.08;14.35;;;;;;;;;;5093877;28;20496;-67
2022/03/11 05:46:05;;;;;;;26.25;15.10;;;;;;;;;;5093957;28;20036;-67
2022/03/11 05:48:32;;;;;;;29.23;15.38;;;;;;;;;;5092209;28;20072;-67
2022/03/11 05:50:58;;;;;;;26.13;15.43;;;;;;;;;;5093938;28;20113;-67
2022/03/11 05:53:24;;;;;;;27.67;14.95;;;;;;;;;;5094043;28;20047;-67
2022/03/11 05:55:50;;;;;;;28.65;15.95;;;;;;;;;;5093142;28;20036;-67
2022/03/11 05:58:16;;;;;;;27.35;15.07;;;;;;;;;;5093744;28;20040;-67
2022/03/11 06:00:42;;;;;;;26.60;15.27;;;;;;;;;;5093545;28;20090;-67
2022/03/11 06:03:08;;;;;;;29.27;15.82;;;;;;;;;;5093174;28;20040;-67
2022/03/11 06:05:34;;;;;;;30.95;15.82;;;;;;;;;;5092120;28;20058;-67
2022/03/11 06:08:00;;;;;;;31.15;15.98;;;;;;;;;;5093757;28;20493;-67
2022/03/11 06:10:27;;;;;;;27.52;15.73;;;;;;;;;;5093142;28;20040;-67
2022/03/11 06:12:53;;;;;;;29.23;16.25;;;;;;;;;;5093553;28;20517;-67
2022/03/11 06:15:19;;;;;;;31.33;15.20;;;;;;;;;;5093438;28;20067;-67
2022/03/11 06:17:45;;;;;;;33.63;16.65;;;;;;;;;;5091633;28;20051;-67
2022/03/11 06:20:12;;;;;;;30.80;16.05;;;;;;;;;;5093365;28;20120;-67
2022/03/11 06:22:46;;;;;;;27.35;15.10;;;;;;;;;;5092347;28;20044;-67
2022/03/11 06:25:12;;;;;;;28.10;15.75;;;;;;;;;;5092745;28;20051;-67
2022/03/11 06:27:38;;;;;;;34.20;16.38;;;;;;;;;;5093042;28;20036;-67
2022/03/11 06:30:05;;;;;;;31.60;15.70;;;;;;;;;;5093095;28;20056;-67
2022/03/11 06:32:31;;;;;;;30.90;16.27;;;;;;;;;;5092330;28;20040;-67
2022/03/11 06:34:57;;;;;;;31.15;16.05;;;;;;;;;;5074261;28;20064;-67
2022/03/11 06:37:23;;;;;;;29.38;15.27;;;;;;;;;;5072872;28;20056;-67
2022/03/11 06:39:49;;;;;;;28.48;16.02;;;;;;;;;;5072263;28;20080;-67
2022/03/11 06:42:15;;;;;;;28.05;15.73;;;;;;;;;;5072612;28;20121;-67
2022/03/11 06:44:42;;;;;;;28.88;16.00;;;;;;;;;;5072797;28;20036;-67
2022/03/11 06:47:08;;;;;;;30.65;15.65;;;;;;;;;;5071990;28;20660;-67
2022/03/11 06:49:34;;;;;;;25.75;15.50;;;;;;;;;;5072460;28;20368;-67
2022/03/11 06:52:00;;;;;;;28.58;16.20;;;;;;;;;;5072330;28;20047;-67
2022/03/11 06:54:26;;;;;;;28.60;15.18;;;;;;;;;;5070409;28;20047;-67
2022/03/11 06:56:52;;;;;;;30.35;16.02;;;;;;;;;;5072461;28;20040;-67
2022/03/11 06:59:18;;;;;;;28.95;15.25;;;;;;;;;;5072363;28;20041;-67
2022/03/11 07:01:44;;;;;;;30.88;16.20;;;;;;;;;;5071722;28;20044;-67
2022/03/11 07:04:10;;;;;;;27.02;15.32;;;;;;;;;;5072197;28;20127;-67
2022/03/11 07:06:36;;;;;;;33.97;16.05;;;;;;;;;;5071999;28;20475;-67
2022/03/11 07:09:03;;;;;;;30.85;16.65;;;;;;;;;;5071684;28;20051;-67
2022/03/11 07:11:32;;;;;;;30.55;16.48;;;;;;;;;;5070524;28;20036;-67
2022/03/11 07:13:58;;;;;;;27.90;15.45;;;;;;;;;;5070681;28;20032;-67
2022/03/11 07:16:24;;;;;;;28.52;15.23;;;;;;;;;;5071252;28;20047;-67
2022/03/11 07:18:50;;;;;;;28.98;16.15;;;;;;;;;;5071939;28;20038;-67
2022/03/11 07:21:16;;;;;;;30.88;16.63;;;;;;;;;;5071755;28;20041;-67
2022/03/11 07:23:42;;;;;;;28.67;15.70;;;;;;;;;;5071224;28;20875;-67
2022/03/11 07:26:08;;;;;;;27.52;16.38;;;;;;;;;;5071690;28;20040;-67
2022/03/11 07:28:34;;;;;;;30.55;15.80;;;;;;;;;;5071475;28;20048;-67
2022/03/11 07:31:01;;;;;;;29.33;15.55;;;;;;;;;;5070581;28;20110;-69
2022/03/11 07:33:27;;;;;;;26.70;14.95;;;;;;;;;;5063247;28;20044;-67
2022/03/11 07:35:53;;;;;;;29.08;16.65;;;;;;;;;;5086223;28;20032;-66
2022/03/11 07:38:19;;;;;;;29.70;16.55;;;;;;;;;;5090409;28;20075;-65
2022/03/11 07:40:46;;;;;;;27.73;15.90;;;;;;;;;;5090688;28;20044;-66
2022/03/11 07:43:13;;;;;;;27.55;16.13;;;;;;;;;;5085681;28;20090;-68
2022/03/11 07:45:39;;;;;;;27.20;15.98;;;;;;;;;;5090427;28;20044;-66
2022/03/11 07:48:05;;;;;;;29.70;15.50;;;;;;;;;;5091166;28;20074;-66
2022/03/11 07:50:32;;;;;;;25.65;14.98;;;;;;;;;;5091284;28;20036;-67
2022/03/11 07:52:58;;;;;;;28.45;15.73;;;;;;;;;;5089623;28;20490;-66
2022/03/11 07:55:24;;;;;;;29.77;16.20;;;;;;;;;;5088892;28;20427;-66
2022/03/11 07:57:50;;;;;;;30.02;15.65;;;;;;;;;;5091220;28;20036;-66
2022/03/11 08:00:16;;;;;;;29.50;16.63;;;;;;;;;;5089961;28;20083;-67
2022/03/11 08:02:42;;;;;;;30.40;15.57;;;;;;;;;;5090617;28;20051;-66
2022/03/11 08:05:16;;;;;;;35.42;15.68;;;;;;;;;;5090016;28;20188;-65
2022/03/11 08:07:48;;;;;;;28.92;16.10;;;;;;;;;;5090913;28;20059;-66
2022/03/11 08:10:15;;;;;;;29.40;16.17;;;;;;;;;;5090359;28;20032;-66
2022/03/11 08:12:41;;;;;;;25.92;15.98;;;;;;;;;;5090893;28;20119;-67
2022/03/11 08:15:08;;;;;;;27.80;15.98;;;;;;;;;;5090984;28;20048;-67
2022/03/11 08:17:34;;;;;;;32.80;15.82;;;;;;;;;;5090202;28;20043;-66
2022/03/11 08:20:00;;;;;;;27.40;15.65;;;;;;;;;;5090711;28;20044;-66
2022/03/11 08:22:26;;;;;;;31.65;16.42;;;;;;;;;;5090777;28;20048;-67
2022/03/11 08:24:52;;;;;;;28.08;15.68;;;;;;;;;;5073290;28;20144;-67
2022/03/11 08:27:18;;;;;;;31.73;16.17;;;;;;;;;;5091008;28;20075;-67
2022/03/11 08:29:44;;;;;;;26.52;15.48;;;;;;;;;;5090094;28;20060;-67
2022/03/11 08:32:11;;;;;;;25.80;16.42;;;;;;;;;;5089863;28;20063;-66
2022/03/11 08:34:37;;;;;;;30.30;15.65;;;;;;;;;;5090248;28;20036;-66
2022/03/11 08:37:04;;;;;;;31.45;16.40;;;;;;;;;;5090183;28;20040;-67
2022/03/11 08:39:30;;;;;;;25.60;15.05;;;;;;;;;;5090219;28;20039;-67
2022/03/11 08:41:56;;;;;;;32.30;16.45;;;;;;;;;;5090393;28;20486;-67
2022/03/11 08:44:23;;;;;;;28.17;15.68;;;;;;;;;;5089046;28;20063;-66
2022/03/11 08:46:49;;;;;;;29.25;15.77;;;;;;;;;;5090627;28;20043;-65
2022/03/11 08:49:15;;;;;;;29.67;15.50;;;;;;;;;;5094209;28;20122;-67
2022/03/11 08:51:43;;;;;;;28.83;15.00;;;;;;;;;;5093847;28;20093;-67
2022/03/11 08:54:09;;;;;;;30.42;15.32;;;;;;;;;;5092493;28;20401;-67
2022/03/11 08:56:35;;;;;;;29.10;16.38;;;;;;;;;;5093222;28;20044;-67
2022/03/11 08:59:01;;;;;;;29.88;16.48;;;;;;;;;;5094553;28;20047;-66
2022/03/11 09:01:27;;;;;;;28.63;16.40;;;;;;;;;;5093312;28;20090;-67
2022/03/11 09:03:53;;;;;;;31.65;16.20;;;;;;;;;;5094085;28;20560;-68
2022/03/11 09:06:20;;;;;;;32.83;16.48;;;;;;;;;;5094051;28;20072;-68
2022/03/11 09:08:46;;;;;;;27.73;16.33;;;;;;;;;;5093623;28;20040;-68
2022/03/11 09:11:12;;;;;;;28.27;15.77;;;;;;;;;;5093936;28;20044;-67
2022/03/11 09:13:38;;;;;;;34.97;17.08;;;;;;;;;;5093398;28;20040;-68
2022/03/11 09:16:05;;;;;;;30.45;16.48;;;;;;;;;;5093364;28;20040;-68
2022/03/11 09:18:31;;;;;;;27.75;15.98;;;;;;;;;;5094017;28;20483;-66
2022/03/11 09:20:57;;;;;;;30.48;16.35;;;;;;;;;;5093881;28;20051;-66
2022/03/11 09:23:23;;;;;;;36.53;16.40;;;;;;;;;;5093199;28;20052;-68
2022/03/11 09:25:50;;;;;;;27.52;16.52;;;;;;;;;;5093788;28;20128;-67
2022/03/11 09:28:16;;;;;;;30.63;17.08;;;;;;;;;;5093464;28;20533;-67
2022/03/11 09:30:42;;;;;;;27.80;17.02;;;;;;;;;;5092305;28;20083;-67
2022/03/11 09:33:08;;;;;;;27.77;15.75;;;;;;;;;;5091837;28;20071;-67
2022/03/11 09:35:34;;;;;;;26.40;15.43;;;;;;;;;;5091864;28;20036;-68
2022/03/11 09:38:00;;;;;;;28.63;16.67;;;;;;;;;;5092762;28;20197;-68
2022/03/11 09:40:26;;;;;;;29.83;16.77;;;;;;;;;;5091919;28;20478;-66
2022/03/11 09:42:53;;;;;;;28.38;16.60;;;;;;;;;;5093819;28;20044;-66
2022/03/11 09:45:21;;;;;;;30.35;16.70;;;;;;;;;;5092346;28;20055;-68
2022/03/11 09:47:47;;;;;;;29.13;17.08;;;;;;;;;;5093377;28;20048;-66
2022/03/11 09:50:13;;;;;;;25.73;15.50;;;;;;;;;;5093266;28;20133;-66
2022/03/11 09:52:42;;;;;;;25.70;16.20;;;;;;;;;;5092639;28;20165;-66
2022/03/11 09:55:08;;;;;;;30.83;17.55;;;;;;;;;;5092021;28;20043;-66
2022/03/11 09:57:34;;;;;;;30.77;16.92;;;;;;;;;;5090564;28;20043;-66
2022/03/11 10:00:00;;;;;;;32.63;17.65;;;;;;;;;;5090993;28;20044;-66
2022/03/11 10:02:26;;;;;;;30.52;16.60;;;;;;;;;;5090691;28;20044;-67
2022/03/11 10:04:54;;;;;;;31.63;17.77;;;;;;;;;;5092426;28;20052;-67
2022/03/11 10:07:23;;;;;;;32.25;17.27;;;;;;;;;;5092218;28;20173;-66
2022/03/11 10:09:49;;;;;;;27.52;16.48;;;;;;;;;;5092982;28;20494;-67
2022/03/11 10:12:26;;;;;;;30.23;17.10;;;;;;;;;;5092672;28;20040;-66
2022/03/11 10:15:00;;;;;;;33.22;17.23;;;;;;;;;;5092052;28;20761;-66
2022/03/11 10:17:27;;;;;;;27.98;16.67;;;;;;;;;;5090971;28;20051;-66
2022/03/11 10:20:00;;;;;;;30.38;16.77;;;;;;;;;;5091476;28;20571;-66
2022/03/11 10:22:26;;;;;;;28.95;16.83;;;;;;;;;;5092184;28;20516;-66
2022/03/11 10:24:52;;;;;;;30.25;17.55;;;;;;;;;;5091928;28;20047;-66
2022/03/11 10:27:18;;;;;;;29.80;16.75;;;;;;;;;;5092313;28;20086;-66
2022/03/11 10:29:44;;;;;;;27.30;16.75;;;;;;;;;;5091954;28;20745;-66
2022/03/11 10:32:10;;;;;;;26.95;16.77;;;;;;;;;;5092355;28;20055;-66
2022/03/11 10:34:37;;;;;;;30.10;17.95;;;;;;;;;;5092057;28;20544;-66
2022/03/11 10:37:04;;;;;;;27.63;16.88;;;;;;;;;;5091427;28;20044;-67
2022/03/11 10:39:36;;;;;;;29.00;17.70;;;;;;;;;;5092431;28;20458;-67
2022/03/11 10:42:02;;;;;;;;;;;;;;;;;;5092396;28;20048;-65
2022/03/11 10:44:29;;;;;;;24.90;15.77;;;;;;;;;;5091101;28;20028;-66
2022/03/11 10:46:55;;;;;;;30.73;17.50;;;;;;;;;;5091647;28;20063;-67
2022/03/11 10:49:25;;;;;;;31.85;17.13;;;;;;;;;;5092284;28;20143;-66
2022/03/11 10:51:53;;;;;;;29.90;17.67;;;;;;;;;;5091225;28;20036;-66
2022/03/11 10:54:19;;;;;;;26.95;15.80;;;;;;;;;;5087523;28;20086;-67
2022/03/11 10:56:45;;;;;;;30.10;16.77;;;;;;;;;;5086927;28;20684;-66
2022/03/11 10:59:31;;;;;;;29.25;16.58;;;;;;;;;;5091089;28;20470;-66
2022/03/11 11:01:58;;;;;;;29.23;17.20;;;;;;;;;;5092103;28;20054;-65
2022/03/11 11:04:25;;;;;;;30.92;16.98;;;;;;;;;;5091426;28;20036;-66
2022/03/11 11:06:52;;;;;;;29.42;16.85;;;;;;;;;;5090910;28;20042;-66
2022/03/11 11:09:21;;;;;;;28.48;16.83;;;;;;;;;;5091375;28;20111;-66
2022/03/11 11:11:47;;;;;;;26.50;16.10;;;;;;;;;;5091969;28;20074;-67
2022/03/11 11:14:13;;;;;;;29.77;15.65;;;;;;;;;;5090706;28;20093;-66
2022/03/11 11:16:44;;;;;;;27.23;15.60;;;;;;;;;;5091656;28;20118;-66
2022/03/11 11:19:11;;;;;;;30.10;15.88;;;;;;;;;;5083948;28;20169;-66
2022/03/11 11:21:41;;;;;;;24.52;15.27;;;;;;;;;;5086410;28;21644;-67
2022/03/11 11:24:27;;;;;;;25.33;15.05;;;;;;;;;;5091519;28;20039;-67
2022/03/11 11:26:56;;;;;;;27.08;16.40;;;;;;;;;;5091278;28;20050;-67
2022/03/11 11:29:27;;;;;;;28.90;15.77;;;;;;;;;;5084810;28;20043;-66
2022/03/11 11:31:53;;;;;;;25.98;15.10;;;;;;;;;;5091403;28;20036;-66
2022/03/11 11:34:30;;;;;;;26.67;15.23;;;;;;;;;;5091208;28;20165;-67
2022/03/11 11:36:56;;;;;;;29.33;15.60;;;;;;;;;;5090969;28;20086;-66
2022/03/11 11:39:41;;;;;;;26.70;15.07;;;;;;;;;;5090824;28;20039;-67
2022/03/11 11:42:12;;;;;;;26.15;15.60;;;;;;;;;;5090380;28;20506;-66
2022/03/11 11:44:40;;;;;;;25.98;15.43;;;;;;;;;;5085173;28;20047;-66
2022/03/11 11:47:07;;;;;;;24.45;15.73;;;;;;;;;;5090751;28;20040;-67
2022/03/11 11:49:40;;;;;;;25.42;14.65;;;;;;;;;;5091271;28;20036;-67
2022/03/11 11:52:11;;;;;;;25.23;14.75;;;;;;;;;;5090602;28;20089;-67
2022/03/11 11:54:39;;;;;;;22.75;14.32;;;;;;;;;;5091496;28;20367;-67
2022/03/11 11:57:05;;;;;;;24.58;15.52;;;;;;;;;;5084655;28;20050;-66
2022/03/11 11:59:35;;;;;;;26.30;15.52;;;;;;;;;;5090433;28;20802;-66
2022/03/11 12:02:02;;;;;;;27.05;14.93;;;;;;;;;;5091164;28;20048;-66
2022/03/11 12:04:35;;;;;;;21.88;14.40;;;;;;;;;;5089349;28;20123;-66
2022/03/11 12:07:03;;;;;;;23.48;15.63;;;;;;;;;;5089892;28;20039;-66
2022/03/11 12:10:11;;;;;;;25.98;14.80;;;;;;;;;;5090670;28;20048;-65
2022/03/11 12:12:37;;;;;;;23.88;14.95;;;;;;;;;;5086098;28;20458;-68
2022/03/11 12:15:08;;;;;;;24.13;15.15;;;;;;;;;;5090499;28;20052;-68
2022/03/11 12:17:42;;;;;;;25.02;14.65;;;;;;;;;;5088917;28;20584;-66
2022/03/11 12:20:27;;;;;;;24.63;14.70;;;;;;;;;;5089277;28;20110;-66
2022/03/11 12:22:57;;;;;;;22.25;14.88;;;;;;;;;;5094496;28;20043;-67
2022/03/11 12:25:24;;;;;;;24.33;14.98;;;;;;;;;;5095159;28;20048;-67
2022/03/11 12:27:59;;;;;;;25.10;14.65;;;;;;;;;;5093930;28;20040;-66
2022/03/11 12:30:29;;;;;;;24.98;14.75;;;;;;;;;;5085718;28;20063;-66
2022/03/11 12:32:55;;;;;;;22.23;14.85;;;;;;;;;;5094879;28;20179;-67
2022/03/11 12:35:25;;;;;;;22.42;14.80;;;;;;;;;;5081839;28;20104;-66
2022/03/11 12:37:51;;;;;;;22.45;14.57;;;;;;;;;;5092773;28;20051;-66
2022/03/11 12:40:20;;;;;;;27.38;14.82;;;;;;;;;;5087352;28;20044;-68
2022/03/11 12:42:46;;;;;;;20.73;14.45;;;;;;;;;;5091919;28;20052;-67
2022/03/11 12:45:14;;;;;;;23.38;14.45;;;;;;;;;;5094562;28;20047;-67
2022/03/11 12:47:41;;;;;;;23.95;14.23;;;;;;;;;;5094267;28;20055;-67
2022/03/11 12:50:08;;;;;;;24.92;14.73;;;;;;;;;;5093750;28;20047;-67
2022/03/11 12:52:38;;;;;;;23.45;14.25;;;;;;;;;;5094639;28;20101;-67
2022/03/11 12:55:20;;;;;;;24.05;14.57;;;;;;;;;;5094325;28;20060;-67
2022/03/11 12:57:50;;;;;;;20.92;14.48;;;;;;;;;;5093303;28;20456;-66
2022/03/11 13:00:24;;;;;;;22.48;14.43;;;;;;;;;;5092664;28;20040;-66
2022/03/11 13:02:50;;;;;;;21.65;13.77;;;;;;;;;;5094343;28;20075;-67
2022/03/11 13:05:31;;;;;;;22.90;14.10;;;;;;;;;;5093350;28;20044;-67
2022/03/11 13:08:05;;;;;;;23.30;14.63;;;;;;;;;;5094185;28;20044;-67
2022/03/11 13:10:31;;;;;;;21.00;13.57;;;;;;;;;;5075328;28;20074;-67
2022/03/11 13:12:58;;;;;;;20.73;13.07;;;;;;;;;;5093413;28;20065;-66
2022/03/11 13:15:28;;;;;;;18.58;12.50;;;;;;;;;;5094424;28;20040;-67
2022/03/11 13:18:01;;;;;;;20.80;12.63;;;;;;;;;;5085838;28;20045;-67
2022/03/11 13:20:37;;;;;;;22.45;13.50;;;;;;;;;;5075812;28;20372;-67
2022/03/11 13:23:09;;;;;;;21.58;13.25;;;;;;;;;;5094241;28;20126;-68
2022/03/11 13:25:36;;;;;;;18.10;12.00;;;;;;;;;;5092529;28;20051;-67
2022/03/11 13:28:02;;;;;;;18.23;12.63;;;;;;;;;;5091438;28;20050;-67
2022/03/11 13:30:35;;;;;;;21.25;12.55;;;;;;;;;;5092772;28;20478;-68
2022/03/11 13:33:17;;;;;;;24.73;13.30;;;;;;;;;;5093382;28;20079;-67
2022/03/11 13:35:43;;;;;;;15.90;11.63;;;;;;;;;;5092609;28;20044;-67
2022/03/11 13:38:09;;;;;;;20.30;11.88;;;;;;;;;;5093392;28;20059;-67
2022/03/11 13:40:36;;;;;;;18.15;13.38;;;;;;;;;;5092723;28;20067;-68
2022/03/11 13:43:04;;;;;;;16.52;12.35;;;;;;;;;;5092850;28;20082;-67
2022/03/11 13:45:30;;;;;;;18.52;12.23;;;;;;;;;;5092438;28;20067;-67
2022/03/11 13:48:02;;;;;;;22.10;13.65;;;;;;;;;;5093492;28;20078;-66
2022/03/11 13:50:28;;;;;;;19.45;12.77;;;;;;;;;;5091798;28;20039;-67
2022/03/11 13:52:57;;;;;;;19.42;12.07;;;;;;;;;;5092647;28;20036;-67
2022/03/11 13:55:31;;;;;;;21.65;12.65;;;;;;;;;;5093153;28;20432;-67
2022/03/11 13:58:12;;;;;;;18.90;12.88;;;;;;;;;;5092430;28;20048;-66
2022/03/11 14:00:38;;;;;;;18.73;11.73;;;;;;;;;;5092700;28;20139;-66
2022/03/11 14:03:17;;;;;;;18.25;12.10;;;;;;;;;;5092752;28;20047;-67
2022/03/11 14:05:44;;;;;;;20.60;12.00;;;;;;;;;;5092839;28;20058;-67
2022/03/11 14:08:13;;;;;;;15.77;11.15;;;;;;;;;;5091910;28;20127;-68
2022/03/11 14:10:41;;;;;;;17.98;11.75;;;;;;;;;;5091854;28;20047;-68
2022/03/11 14:13:08;;;;;;;18.15;11.88;;;;;;;;;;5091644;28;20486;-67
2022/03/11 14:15:38;;;;;;;15.18;10.95;;;;;;;;;;5091539;28;20543;-67
2022/03/11 14:18:04;;;;;;;18.95;12.25;;;;;;;;;;5092504;28;20044;-67
2022/03/11 14:20:31;;;;;;;18.13;11.90;;;;;;;;;;5092892;28;20047;-68